createdAt,value
2018-11-07T00:01:07.484Z,39.5
2018-11-07T00:11:06.694Z,39.5
2018-11-07T00:21:05.906Z,39.6
2018-11-07T00:31:05.118Z,39.5
2018-11-07T00:41:04.337Z,39.5
2018-11-07T00:51:03.545Z,39.5
2018-11-07T01:01:02.757Z,39.6
2018-11-07T01:11:01.975Z,39.5
2018-11-07T01:21:01.184Z,39.5
2018-11-07T01:31:00.396Z,39.5
2018-11-07T01:40:59.609Z,39.6
2018-11-07T01:50:58.822Z,39.5
2018-11-07T02:00:58.047Z,39.5
2018-11-07T02:10:57.251Z,39.5
2018-11-07T02:20:56.464Z,39.5
2018-11-07T02:30:55.678Z,39.5
2018-11-07T02:40:54.885Z,39.5
2018-11-07T02:50:54.099Z,39.4
2018-11-07T03:00:53.321Z,39.4
2018-11-07T03:10:52.522Z,39.4
2018-11-07T03:20:51.736Z,39.4
2018-11-07T03:30:50.949Z,39.4
2018-11-07T03:40:50.164Z,38.4
2018-11-07T03:50:49.372Z,36.6
2018-11-07T04:00:48.590Z,36.8
2018-11-07T04:10:47.797Z,36.8
2018-11-07T04:20:47.064Z,36.8
2018-11-07T04:30:46.225Z,35.9
2018-11-07T04:40:45.446Z,35.4
2018-11-07T04:50:44.649Z,35.6
2018-11-07T05:00:43.868Z,34.4
2018-11-07T05:10:43.078Z,34
2018-11-07T05:20:42.293Z,33.3
2018-11-07T05:30:41.512Z,33.5
2018-11-07T05:40:40.735Z,33.5
2018-11-07T05:50:39.942Z,33.6
2018-11-07T06:00:39.151Z,33.6
2018-11-07T06:10:38.372Z,33.7
2018-11-07T06:20:37.580Z,33.8
2018-11-07T06:30:36.801Z,33.8
2018-11-07T06:40:36.019Z,33.9
2018-11-07T06:50:35.223Z,34.4
2018-11-07T07:00:34.443Z,35.1
2018-11-07T07:10:33.654Z,35.9
2018-11-07T07:20:32.868Z,36.8
2018-11-07T07:30:32.153Z,37.7
2018-11-07T07:40:31.301Z,38.6
2018-11-07T07:50:30.521Z,39.6
2018-11-07T08:00:29.728Z,40.4
2018-11-07T08:10:28.954Z,41.3
2018-11-07T08:20:28.164Z,42.1
2018-11-07T08:30:27.376Z,42.9
2018-11-07T08:40:26.593Z,43.6
2018-11-07T08:50:25.806Z,44.1
2018-11-07T09:00:25.024Z,44.3
2018-11-07T09:10:24.239Z,44.6
2018-11-07T09:20:23.448Z,44.8
2018-11-07T09:30:22.661Z,45
2018-11-07T09:40:21.892Z,45.3
2018-11-07T09:50:21.101Z,45.6
2018-11-07T10:00:20.310Z,46.1
2018-11-07T10:10:19.523Z,46.6
2018-11-07T10:20:18.793Z,47.1
2018-11-07T10:30:18.287Z,47.7
2018-11-07T10:40:17.164Z,48.3
2018-11-07T10:50:16.383Z,48.9
2018-11-07T11:00:15.604Z,49.4
2018-11-07T11:10:14.812Z,50
2018-11-07T11:20:14.022Z,50.1
2018-11-07T11:30:13.237Z,50.5
2018-11-07T11:40:12.457Z,50.8
2018-11-07T11:50:11.672Z,51.4
2018-11-07T12:00:11.418Z,51.9
2018-11-07T12:10:10.147Z,52.4
2018-11-07T12:20:09.310Z,52.9
2018-11-07T12:30:08.532Z,53.5
2018-11-07T12:40:07.793Z,54
2018-11-07T12:50:07.153Z,54.4
2018-11-07T13:00:06.169Z,54.9
2018-11-07T13:10:05.381Z,55.4
2018-11-07T13:20:04.600Z,55.9
2018-11-07T13:30:03.857Z,56.2
2018-11-07T13:40:03.026Z,56.6
2018-11-07T13:50:02.239Z,56.9
2018-11-07T14:00:01.456Z,57.3
2018-11-07T14:10:00.666Z,57.4
2018-11-07T14:19:59.880Z,57.6
2018-11-07T14:29:59.088Z,57.8
2018-11-07T14:39:58.306Z,57.9
2018-11-07T14:49:57.522Z,57.9
2018-11-07T14:59:56.727Z,57.9
2018-11-07T15:09:56.018Z,57.8
2018-11-07T15:19:55.162Z,57.8
2018-11-07T15:29:54.370Z,57.7
2018-11-07T15:39:53.587Z,57.6
2018-11-07T15:49:52.796Z,57.5
2018-11-07T15:59:52.039Z,57.4
2018-11-07T16:09:51.253Z,57.4
2018-11-07T16:19:50.441Z,57.3
2018-11-07T16:29:49.649Z,57.1
2018-11-07T16:39:48.863Z,57.1
2018-11-07T16:49:48.072Z,57
2018-11-07T16:59:47.284Z,56.8
2018-11-07T17:09:46.551Z,56.4
2018-11-07T17:19:45.707Z,56.4
2018-11-07T17:29:44.931Z,55.9
2018-11-07T17:39:44.141Z,55.4
2018-11-07T17:49:43.352Z,54.1
2018-11-07T17:59:42.570Z,53.6
2018-11-07T18:09:41.850Z,52.3
2018-11-07T18:19:41.000Z,47.8
2018-11-07T18:29:40.213Z,45.9
2018-11-07T18:39:39.433Z,45.7
2018-11-07T18:49:38.644Z,45.6
2018-11-07T18:59:37.862Z,45.1
2018-11-07T19:09:37.072Z,45.1
2018-11-07T19:19:36.287Z,44.9
2018-11-07T19:29:35.500Z,42.3
2018-11-07T19:39:34.723Z,42.5
2018-11-07T19:49:33.932Z,42.6
2018-11-07T19:59:33.154Z,42.3
2018-11-07T20:09:32.365Z,41.7
2018-11-07T20:19:31.582Z,41.9
2018-11-07T20:29:30.798Z,42.1
2018-11-07T20:39:30.007Z,40.8
2018-11-07T20:49:29.225Z,41.1
2018-11-07T20:59:28.438Z,40.3
2018-11-07T21:09:27.657Z,40.4
2018-11-07T21:19:26.866Z,40.4
2018-11-07T21:29:26.085Z,40.4
2018-11-07T21:39:25.296Z,40.5
2018-11-07T21:49:24.523Z,40.5
2018-11-07T21:59:23.730Z,40.6
2018-11-07T22:09:22.952Z,40.6
2018-11-07T22:19:22.159Z,40.6
2018-11-07T22:29:21.369Z,40.6
2018-11-07T22:39:20.589Z,40.6
2018-11-07T22:49:19.798Z,40.6
2018-11-07T22:59:19.016Z,40.6
2018-11-07T23:09:18.225Z,40.6
2018-11-07T23:19:17.473Z,40.6
2018-11-07T23:29:16.656Z,40.6
2018-11-07T23:39:15.863Z,40.6
